createdAt,value
2022-09-13T19:50:30.409Z,16.67
2022-09-13T19:52:59.855Z,16.65
2022-09-13T19:55:29.271Z,16.57
2022-09-13T19:57:59.391Z,16.54
2022-09-13T20:00:28.809Z,16.51
2022-09-13T20:02:58.249Z,16.45
2022-09-13T20:05:29.081Z,16.39
2022-09-13T20:07:58.865Z,16.34
2022-09-13T20:10:28.688Z,16.29
2022-09-13T20:12:58.984Z,16.22
2022-09-13T20:15:31.033Z,16.18
2022-09-13T20:18:00.496Z,16.14
2022-09-13T20:20:31.229Z,16.10
2022-09-13T20:23:00.655Z,16.10
2022-09-13T20:25:30.193Z,16.06
2022-09-13T20:27:59.565Z,16.02
2022-09-13T20:30:29.057Z,16.00
2022-09-13T20:32:58.522Z,15.96
2022-09-13T20:35:29.650Z,15.93
2022-09-13T20:38:00.458Z,15.87
2022-09-13T20:40:30.988Z,15.86
2022-09-13T20:43:00.546Z,15.84
2022-09-13T20:45:33.237Z,15.82
2022-09-13T20:48:02.998Z,15.79
2022-09-13T20:50:32.563Z,15.79
2022-09-13T20:53:03.566Z,15.79
2022-09-13T20:55:34.799Z,15.78
2022-09-13T20:58:04.511Z,15.79
2022-09-13T21:00:34.034Z,15.73
2022-09-13T21:03:05.111Z,15.72
2022-09-13T21:05:37.914Z,15.71
2022-09-13T21:08:35.066Z,15.72
2022-09-13T21:11:06.391Z,15.70
2022-09-13T21:13:37.658Z,15.70
2022-09-13T21:16:10.226Z,15.70
2022-09-13T21:18:41.090Z,15.70
2022-09-13T21:21:14.628Z,15.70
2022-09-13T21:23:46.644Z,15.70
2022-09-13T21:26:25.174Z,15.68
2022-09-13T21:28:55.733Z,15.68
2022-09-13T21:31:29.888Z,15.69
2022-09-13T21:34:02.284Z,15.68
2022-09-13T21:36:35.358Z,15.69
2022-09-13T21:39:07.199Z,15.71
2022-09-13T21:41:37.808Z,15.73
2022-09-13T21:44:07.425Z,15.81
2022-09-13T21:46:39.518Z,15.82
2022-09-13T21:49:12.567Z,15.87
2022-09-13T21:51:45.615Z,15.90
2022-09-13T21:54:19.481Z,15.93
2022-09-13T21:56:53.770Z,15.96
2022-09-13T21:59:25.088Z,15.95
2022-09-13T22:01:55.282Z,15.93
2022-09-13T22:04:27.627Z,15.94
2022-09-13T22:06:57.689Z,15.96
2022-09-13T22:09:28.781Z,15.99
2022-09-13T22:11:59.024Z,16.05
2022-09-13T22:14:28.656Z,16.10
2022-09-13T22:16:58.406Z,16.20
2022-09-13T22:19:31.604Z,16.21
2022-09-13T22:22:01.982Z,16.24
2022-09-13T22:24:35.720Z,16.23
2022-09-13T22:27:07.119Z,16.19
2022-09-13T22:29:36.990Z,16.17
2022-09-13T22:32:06.842Z,16.15
2022-09-13T22:34:38.544Z,16.15
2022-09-13T22:37:08.074Z,16.14
2022-09-13T22:39:38.949Z,16.14
2022-09-13T22:42:09.079Z,16.13
2022-09-13T22:44:38.612Z,16.11
2022-09-13T22:47:09.275Z,16.13
2022-09-13T22:49:38.764Z,16.12
2022-09-13T22:52:08.354Z,16.11
2022-09-13T22:54:41.615Z,16.09
2022-09-13T22:57:11.673Z,16.08
2022-09-13T22:59:41.522Z,16.08
2022-09-13T23:02:13.794Z,16.04
2022-09-13T23:04:43.268Z,16.03
2022-09-13T23:07:12.764Z,16.02
2022-09-13T23:09:43.551Z,16.01
2022-09-13T23:12:12.977Z,16.04
2022-09-13T23:14:42.389Z,16.04
2022-09-13T23:17:11.826Z,16.05
2022-09-13T23:19:41.517Z,16.03
2022-09-13T23:22:10.966Z,16.03
2022-09-13T23:24:40.344Z,16.06
2022-09-13T23:27:11.170Z,16.05
2022-09-13T23:29:40.806Z,16.05
2022-09-13T23:32:10.407Z,16.09
2022-09-13T23:34:39.828Z,16.10
2022-09-13T23:37:09.997Z,16.03
2022-09-13T23:39:39.365Z,16.02
2022-09-13T23:42:11.720Z,16.02
2022-09-13T23:44:41.165Z,16.00
2022-09-13T23:47:11.101Z,15.98
2022-09-13T23:49:40.697Z,15.95
2022-09-13T23:52:10.098Z,15.93
2022-09-13T23:54:39.548Z,15.91
2022-09-13T23:57:10.389Z,15.90
2022-09-13T23:59:39.931Z,15.90
